createdAt,value
2017-03-10T00:00:57.927Z,1016.5
2017-03-10T00:02:00.082Z,1016.6
2017-03-10T00:03:03.054Z,1016.6
2017-03-10T00:04:05.523Z,1016.6
2017-03-10T00:05:07.839Z,1016.7
2017-03-10T00:06:10.812Z,1016.6
2017-03-10T00:07:13.291Z,1016.6
2017-03-10T00:08:16.079Z,1016.6
2017-03-10T00:09:18.549Z,1016.6
2017-03-10T00:10:21.002Z,1016.7
2017-03-10T00:11:23.798Z,1016.7
2017-03-10T00:12:26.103Z,1016.7
2017-03-10T00:14:31.495Z,1016.7
2017-03-10T00:15:33.949Z,1016.8
2017-03-10T00:16:36.408Z,1016.8
2017-03-10T00:17:39.369Z,1016.8
2017-03-10T00:18:41.867Z,1016.8
2017-03-10T00:19:44.321Z,1016.8
2017-03-10T00:20:46.778Z,1016.8
2017-03-10T00:21:49.289Z,1016.8
2017-03-10T00:22:52.254Z,1016.8
2017-03-10T00:23:54.740Z,1016.8
2017-03-10T00:24:57.190Z,1016.8
2017-03-10T00:25:59.979Z,1016.9
2017-03-10T00:27:02.433Z,1016.9
2017-03-10T00:28:04.894Z,1016.8
2017-03-10T00:30:10.285Z,1016.9
2017-03-10T00:31:12.775Z,1016.9
2017-03-10T00:32:15.230Z,1016.9
2017-03-10T00:33:18.215Z,1016.9
2017-03-10T00:34:20.676Z,1016.8
2017-03-10T00:35:23.140Z,1016.9
2017-03-10T00:36:25.657Z,1016.9
2017-03-10T00:37:28.445Z,1016.8
2017-03-10T00:38:30.899Z,1016.9
2017-03-10T00:39:33.387Z,1016.9
2017-03-10T00:40:36.351Z,1016.9
2017-03-10T00:41:38.808Z,1016.9
2017-03-10T00:42:41.278Z,1017
2017-03-10T00:43:43.745Z,1016.9
2017-03-10T00:45:49.120Z,1016.9
2017-03-10T00:46:51.573Z,1017
2017-03-10T00:47:54.023Z,1017
2017-03-10T00:48:56.828Z,1017
2017-03-10T00:49:59.296Z,1017
2017-03-10T00:53:07.082Z,1017
2017-03-10T00:57:17.772Z,1017.2
2017-03-10T01:05:38.426Z,1017.2
2017-03-10T01:06:40.911Z,1017.2
2017-03-10T01:07:43.391Z,1017.2
2017-03-10T01:08:45.880Z,1017.2
2017-03-10T01:10:51.250Z,1017.2
2017-03-10T01:13:59.032Z,1017.3
2017-03-10T01:32:45.431Z,1017.3
2017-03-10T01:36:55.619Z,1017.6
2017-03-10T01:37:58.598Z,1017.5
2017-03-10T01:39:01.053Z,1017.5
2017-03-10T01:40:03.536Z,1017.6
2017-03-10T01:41:06.026Z,1017.6
2017-03-10T01:42:08.497Z,1017.7
2017-03-10T01:43:11.456Z,1017.6
2017-03-10T01:44:13.923Z,1017.7
2017-03-10T01:45:16.206Z,1017.7
2017-03-10T01:46:19.184Z,1017.7
2017-03-10T01:47:21.646Z,1017.8
2017-03-10T01:48:24.100Z,1017.8
2017-03-10T01:49:26.583Z,1017.8
2017-03-10T01:50:29.571Z,1017.9
2017-03-10T01:51:32.021Z,1017.9
2017-03-10T01:52:34.496Z,1017.8
2017-03-10T01:53:36.961Z,1017.9
2017-03-10T01:54:39.915Z,1017.8
2017-03-10T01:55:42.425Z,1017.8
2017-03-10T01:56:44.907Z,1017.7
2017-03-10T01:57:47.362Z,1017.9
2017-03-10T01:58:49.853Z,1017.8
2017-03-10T01:59:52.810Z,1017.9
2017-03-10T02:00:55.266Z,1017.9
2017-03-10T02:01:57.733Z,1017.9
2017-03-10T02:03:00.207Z,1018
2017-03-10T02:04:02.663Z,1018
2017-03-10T02:05:05.616Z,1017.9
2017-03-10T02:06:08.083Z,1017.8
2017-03-10T02:07:10.558Z,1017.9
2017-03-10T02:08:13.007Z,1018
2017-03-10T02:09:15.993Z,1017.9
2017-03-10T02:10:18.449Z,1017.9
2017-03-10T02:11:20.912Z,1018
2017-03-10T02:12:23.386Z,1018
2017-03-10T02:13:26.166Z,1018.1
2017-03-10T02:14:28.637Z,1018
2017-03-10T02:15:31.118Z,1018.1
2017-03-10T02:16:34.076Z,1018
2017-03-10T02:17:36.557Z,1018.1
2017-03-10T02:18:39.019Z,1017.9
2017-03-10T02:19:41.485Z,1018.1
2017-03-10T02:20:43.936Z,1018.2
2017-03-10T02:21:46.901Z,1018.1
2017-03-10T02:22:49.355Z,1018.1
2017-03-10T02:23:51.813Z,1018.2
2017-03-10T02:25:57.175Z,1018.2
2017-03-10T02:26:59.640Z,1018.3
2017-03-10T02:28:02.120Z,1018.3
2017-03-10T02:29:04.584Z,1018.3
2017-03-10T02:30:07.386Z,1018.2
2017-03-10T02:31:09.843Z,1018.3
2017-03-10T02:32:12.297Z,1018.4
2017-03-10T02:33:15.262Z,1018.3
2017-03-10T02:34:17.730Z,1018.4
2017-03-10T02:35:20.202Z,1018.4
2017-03-10T02:36:22.696Z,1018.3
2017-03-10T02:37:25.144Z,1018.4
2017-03-10T02:38:28.099Z,1018.5
2017-03-10T02:39:30.553Z,1018.3
2017-03-10T02:40:33.007Z,1018.5
2017-03-10T02:41:35.457Z,1018.5
2017-03-10T02:43:40.832Z,1018.5
2017-03-10T02:44:43.301Z,1018.6
2017-03-10T02:45:45.799Z,1018.5
2017-03-10T02:46:48.784Z,1018.6
2017-03-10T02:47:51.247Z,1018.6
2017-03-10T02:48:53.708Z,1018.4
2017-03-10T02:49:56.165Z,1018.6
2017-03-10T02:50:59.128Z,1018.7
2017-03-10T02:52:01.598Z,1018.7
2017-03-10T02:53:04.109Z,1018.5
2017-03-10T02:54:06.562Z,1018.6
2017-03-10T02:55:09.370Z,1018.6
2017-03-10T02:56:11.840Z,1018.7
2017-03-10T02:57:14.294Z,1018.6
2017-03-10T03:01:24.669Z,1018.7
2017-03-10T03:05:34.863Z,1018.8
2017-03-10T03:06:37.344Z,1018.9
2017-03-10T03:07:39.806Z,1018.8
2017-03-10T03:09:45.177Z,1018.9
2017-03-10T03:10:47.640Z,1018.8
2017-03-10T03:21:13.279Z,1019
2017-03-10T03:23:18.645Z,1019.1
2017-03-10T04:16:29.737Z,1020.1
2017-03-10T04:26:55.631Z,1020.1
2017-03-10T04:30:02.893Z,1020.1
2017-03-10T04:45:41.634Z,1020.5
2017-03-10T04:46:44.107Z,1020.5
2017-03-10T04:47:46.581Z,1020.5
2017-03-10T04:48:49.059Z,1020.5
2017-03-10T04:49:51.533Z,1020.5
2017-03-10T04:50:53.991Z,1020.5
2017-03-10T04:51:56.464Z,1020.5
2017-03-10T04:52:59.426Z,1020.6
2017-03-10T04:54:01.929Z,1020.7
2017-03-10T04:55:04.394Z,1020.7
2017-03-10T04:56:06.884Z,1020.8
2017-03-10T04:57:09.351Z,1020.8
2017-03-10T04:58:11.835Z,1020.9
2017-03-10T04:59:14.789Z,1020.8
2017-03-10T05:00:17.256Z,1020.7
2017-03-10T05:01:19.724Z,1020.8
2017-03-10T05:02:22.183Z,1020.9
2017-03-10T05:03:24.668Z,1020.8
2017-03-10T05:04:27.642Z,1020.8
2017-03-10T05:05:30.096Z,1020.9
2017-03-10T05:06:32.570Z,1020.9
2017-03-10T05:07:35.024Z,1021
2017-03-10T05:08:37.832Z,1021.1
2017-03-10T05:09:40.517Z,1021.1
2017-03-10T05:11:45.399Z,1021.1
2017-03-10T05:12:47.865Z,1021.2
2017-03-10T05:14:53.248Z,1021.2
2017-03-10T05:15:55.737Z,1021.3
2017-03-10T05:16:58.195Z,1021.2
2017-03-10T05:18:00.669Z,1021.3
2017-03-10T05:22:11.349Z,1021.5
2017-03-10T05:23:13.828Z,1021.4
2017-03-10T05:24:16.287Z,1021.4
2017-03-10T05:25:18.746Z,1021.5
2017-03-10T05:26:21.198Z,1021.5
2017-03-10T05:27:24.174Z,1021.6
2017-03-10T05:28:26.483Z,1021.6
2017-03-10T05:29:28.947Z,1021.7
2017-03-10T05:30:31.415Z,1021.6
2017-03-10T05:31:34.393Z,1021.6
2017-03-10T05:32:36.906Z,1021.6
2017-03-10T05:33:39.192Z,1021.7
2017-03-10T05:37:49.869Z,1021.8
2017-03-10T05:38:52.331Z,1021.9
2017-03-10T05:39:54.793Z,1021.9
2017-03-10T05:40:57.254Z,1021.9
2017-03-10T05:41:59.856Z,1022
2017-03-10T05:43:02.306Z,1022
2017-03-10T05:44:05.267Z,1022
2017-03-10T05:45:07.562Z,1022
2017-03-10T05:46:10.357Z,1022
2017-03-10T05:47:12.812Z,1022
2017-03-10T05:48:15.141Z,1022.2
2017-03-10T05:49:18.115Z,1022.2
2017-03-10T05:50:20.569Z,1022.3
2017-03-10T05:51:23.022Z,1022.3
2017-03-10T05:52:25.654Z,1022.3
2017-03-10T05:54:30.861Z,1022.3
2017-03-10T05:55:33.150Z,1022.4
2017-03-10T05:56:36.107Z,1022.4
2017-03-10T05:57:38.565Z,1022.4
2017-03-10T05:59:43.774Z,1022.5
2017-03-10T06:01:48.638Z,1022.5
2017-03-10T06:02:51.125Z,1022.5
2017-03-10T06:03:54.092Z,1022.5
2017-03-10T06:04:56.542Z,1022.5
2017-03-10T06:05:59.030Z,1022.6
2017-03-10T06:07:01.515Z,1022.6
2017-03-10T06:08:03.989Z,1022.6
2017-03-10T06:09:06.967Z,1022.6
2017-03-10T06:10:09.440Z,1022.6
2017-03-10T06:12:14.316Z,1022.6
2017-03-10T06:13:16.769Z,1022.6
2017-03-10T06:14:19.742Z,1022.6
2017-03-10T06:15:22.060Z,1022.6
2017-03-10T06:16:24.586Z,1022.6
2017-03-10T06:17:27.548Z,1022.6
2017-03-10T06:18:30.018Z,1022.6
2017-03-10T06:19:32.472Z,1022.6
2017-03-10T06:20:34.922Z,1022.6
2017-03-10T06:21:37.376Z,1022.7
2017-03-10T06:22:40.346Z,1022.7
2017-03-10T06:24:45.263Z,1022.6
2017-03-10T06:25:47.760Z,1022.7
2017-03-10T06:26:50.218Z,1022.7
2017-03-10T06:29:57.983Z,1022.8
2017-03-10T06:31:00.954Z,1022.8
2017-03-10T06:32:03.429Z,1022.9
2017-03-10T06:33:05.944Z,1022.9
2017-03-10T06:34:08.419Z,1022.9
2017-03-10T06:35:10.868Z,1023
2017-03-10T06:36:13.358Z,1023.1
2017-03-10T06:37:16.312Z,1023
2017-03-10T06:38:18.770Z,1023
2017-03-10T06:39:21.239Z,1023
2017-03-10T06:40:23.697Z,1023.1
2017-03-10T06:41:26.683Z,1023.2
2017-03-10T06:42:28.977Z,1023.2
2017-03-10T06:43:31.449Z,1023.3
2017-03-10T06:44:34.404Z,1023.2
2017-03-10T06:45:36.711Z,1023.2
2017-03-10T06:46:39.209Z,1023.2
2017-03-10T06:47:41.658Z,1023.2
2017-03-10T06:48:44.628Z,1023.2
2017-03-10T06:49:47.122Z,1023.3
2017-03-10T06:50:49.581Z,1023.3
2017-03-10T06:51:52.037Z,1023.2
2017-03-10T06:52:54.517Z,1023.3
2017-03-10T06:53:57.473Z,1023.3
2017-03-10T06:54:59.939Z,1023.3
2017-03-10T06:56:02.397Z,1023.3
2017-03-10T06:57:04.867Z,1023.4
2017-03-10T06:58:07.829Z,1023.4
2017-03-10T06:59:10.282Z,1023.4
2017-03-10T07:00:12.761Z,1023.4
2017-03-10T07:01:15.234Z,1023.4
2017-03-10T07:02:17.690Z,1023.3
2017-03-10T07:03:20.651Z,1023.4
2017-03-10T07:04:23.124Z,1023.5
2017-03-10T07:05:25.590Z,1023.5
2017-03-10T07:06:28.048Z,1023.5
2017-03-10T07:07:30.518Z,1023.5
2017-03-10T07:08:33.496Z,1023.5
2017-03-10T07:09:35.955Z,1023.4
2017-03-10T07:10:38.407Z,1023.4
2017-03-10T07:11:41.203Z,1023.5
2017-03-10T07:12:43.501Z,1023.5
2017-03-10T07:13:45.955Z,1023.6
2017-03-10T07:14:48.916Z,1023.6
2017-03-10T07:15:51.370Z,1023.6
2017-03-10T07:17:56.246Z,1023.6
2017-03-10T07:18:59.210Z,1023.6
2017-03-10T07:20:01.671Z,1023.6
2017-03-10T07:21:04.135Z,1023.6
2017-03-10T07:22:06.613Z,1023.7
2017-03-10T07:23:09.128Z,1023.6
2017-03-10T07:24:12.092Z,1023.7
2017-03-10T07:25:14.558Z,1023.7
2017-03-10T07:26:17.020Z,1023.7
2017-03-10T07:27:19.488Z,1023.7
2017-03-10T07:28:22.469Z,1023.7
2017-03-10T07:29:24.925Z,1023.7
2017-03-10T07:30:27.230Z,1023.7
2017-03-10T07:31:30.200Z,1023.7
2017-03-10T07:32:32.662Z,1023.7
2017-03-10T07:33:35.128Z,1023.7
2017-03-10T07:34:37.609Z,1023.7
2017-03-10T07:35:40.393Z,1023.8
2017-03-10T07:36:42.856Z,1023.8
2017-03-10T07:37:45.315Z,1023.8
2017-03-10T07:38:47.775Z,1023.8
2017-03-10T07:39:50.760Z,1023.8
2017-03-10T07:40:53.226Z,1023.8
2017-03-10T07:41:55.690Z,1023.9
2017-03-10T07:42:58.308Z,1023.9
2017-03-10T07:44:00.769Z,1023.9
2017-03-10T07:45:03.268Z,1023.8
2017-03-10T07:46:06.067Z,1023.8
2017-03-10T07:47:08.876Z,1023.8
2017-03-10T07:48:11.334Z,1023.8
2017-03-10T07:50:16.190Z,1023.9
2017-03-10T07:51:18.987Z,1024
2017-03-10T07:52:21.477Z,1023.9
2017-03-10T07:53:23.931Z,1023.9
2017-03-10T07:54:26.891Z,1023.9
2017-03-10T07:55:29.548Z,1023.9
2017-03-10T07:56:32.047Z,1023.9
2017-03-10T07:57:34.499Z,1023.9
2017-03-10T07:58:36.820Z,1023.9
2017-03-10T07:59:39.809Z,1023.9
2017-03-10T08:00:42.270Z,1023.9
2017-03-10T08:01:44.722Z,1024
2017-03-10T08:02:47.188Z,1024
2017-03-10T08:03:50.157Z,1024.1
2017-03-10T08:04:52.633Z,1024
2017-03-10T08:05:55.108Z,1024
2017-03-10T08:06:57.567Z,1024
2017-03-10T08:08:00.061Z,1024
2017-03-10T08:09:03.032Z,1024
2017-03-10T08:10:05.512Z,1024
2017-03-10T08:11:07.797Z,1024.1
2017-03-10T08:12:10.773Z,1024.1
2017-03-10T08:13:13.229Z,1024
2017-03-10T08:14:15.530Z,1024.1
2017-03-10T08:15:18.482Z,1024
2017-03-10T08:16:20.993Z,1024.1
2017-03-10T08:17:23.454Z,1024.1
2017-03-10T08:18:26.315Z,1024.1
2017-03-10T08:19:28.631Z,1024.1
2017-03-10T08:20:31.117Z,1024.1
2017-03-10T08:21:34.083Z,1024.1
2017-03-10T08:22:36.581Z,1024.2
2017-03-10T08:23:39.035Z,1024.1
2017-03-10T08:24:41.488Z,1024.1
2017-03-10T08:25:44.458Z,1024.1
2017-03-10T08:26:46.917Z,1024.1
2017-03-10T08:27:49.370Z,1024.1
2017-03-10T08:28:51.852Z,1024.1
2017-03-10T08:29:54.829Z,1024.2
2017-03-10T08:30:57.304Z,1024.2
2017-03-10T08:31:59.602Z,1024.3
2017-03-10T08:33:02.557Z,1024.3
2017-03-10T08:34:05.027Z,1024.3
2017-03-10T08:35:07.395Z,1024.3
2017-03-10T08:36:10.383Z,1024.3
2017-03-10T08:37:12.835Z,1024.3
2017-03-10T08:38:15.133Z,1024.3
2017-03-10T08:39:18.104Z,1024.4
2017-03-10T08:40:20.623Z,1024.3
2017-03-10T08:41:23.077Z,1024.3
2017-03-10T08:42:25.543Z,1024.3
2017-03-10T08:43:28.363Z,1024.3
2017-03-10T08:43:58.618Z,1024.3
2017-03-10T08:44:30.885Z,1024.3
2017-03-10T08:45:33.352Z,1024.3
2017-03-10T08:46:36.313Z,1024.3
2017-03-10T08:47:38.603Z,1024.4
2017-03-10T08:48:41.063Z,1024.4
2017-03-10T08:49:44.020Z,1024.4
2017-03-10T08:50:46.337Z,1024.4
2017-03-10T08:51:49.306Z,1024.4
2017-03-10T08:52:51.779Z,1024.5
2017-03-10T08:54:56.646Z,1024.4
2017-03-10T08:55:59.637Z,1024.5
2017-03-10T08:58:04.493Z,1024.5
2017-03-10T08:59:07.451Z,1024.4
2017-03-10T09:00:09.912Z,1024.4
2017-03-10T09:01:12.386Z,1024.5
2017-03-10T09:03:17.765Z,1024.4
2017-03-10T09:04:20.217Z,1024.4
2017-03-10T09:05:22.672Z,1024.5
2017-03-10T09:06:25.654Z,1024.5
2017-03-10T09:07:28.111Z,1024.4
2017-03-10T09:08:30.419Z,1024.4
2017-03-10T09:09:33.389Z,1024.5
2017-03-10T09:10:35.859Z,1024.4
2017-03-10T09:11:38.667Z,1024.5
2017-03-10T09:12:41.154Z,1024.5
2017-03-10T09:13:43.615Z,1024.6
2017-03-10T09:14:46.408Z,1024.5
2017-03-10T09:15:48.889Z,1024.6
2017-03-10T09:16:51.347Z,1024.5
2017-03-10T09:17:54.300Z,1024.5
2017-03-10T09:18:56.754Z,1024.5
2017-03-10T09:19:59.209Z,1024.5
2017-03-10T09:21:01.666Z,1024.5
2017-03-10T09:22:04.492Z,1024.6
2017-03-10T09:23:06.984Z,1024.5
2017-03-10T09:24:09.462Z,1024.5
2017-03-10T09:25:12.427Z,1024.5
2017-03-10T09:26:14.904Z,1024.6
2017-03-10T09:27:17.403Z,1024.5
2017-03-10T09:28:19.861Z,1024.5
2017-03-10T09:29:22.826Z,1024.6
2017-03-10T09:30:25.127Z,1024.6
2017-03-10T09:31:28.083Z,1024.6
2017-03-10T09:31:58.397Z,1024.6
2017-03-10T09:32:30.657Z,1024.6
2017-03-10T09:33:32.951Z,1024.6
2017-03-10T09:34:35.739Z,1024.7
2017-03-10T09:35:38.198Z,1024.7
2017-03-10T09:37:43.581Z,1024.7
2017-03-10T09:38:46.037Z,1024.7
2017-03-10T09:39:48.549Z,1024.6
2017-03-10T09:40:51.513Z,1024.7
2017-03-10T09:41:53.970Z,1024.8
2017-03-10T09:42:56.425Z,1024.8
2017-03-10T09:43:58.895Z,1024.7
2017-03-10T09:45:01.868Z,1024.8
2017-03-10T09:46:04.336Z,1024.7
2017-03-10T09:47:06.788Z,1024.6
2017-03-10T09:48:09.780Z,1024.7
2017-03-10T09:49:12.255Z,1024.7
2017-03-10T09:49:42.499Z,1024.7
2017-03-10T09:50:14.774Z,1024.7
2017-03-10T09:50:45.049Z,1024.7
2017-03-10T09:51:17.319Z,1024.7
2017-03-10T09:52:19.795Z,1024.7
2017-03-10T09:52:50.046Z,1024.7
2017-03-10T09:53:22.320Z,1024.7
2017-03-10T09:54:25.290Z,1024.8
2017-03-10T09:55:27.743Z,1024.8
2017-03-10T09:56:30.370Z,1024.8
2017-03-10T09:57:32.849Z,1024.8
2017-03-10T09:58:35.311Z,1024.9
2017-03-10T09:59:38.283Z,1024.9
2017-03-10T10:00:40.737Z,1024.9
2017-03-10T10:01:43.207Z,1024.8
2017-03-10T10:02:46.181Z,1024.9
2017-03-10T10:03:48.642Z,1024.9
2017-03-10T10:04:51.099Z,1024.9
2017-03-10T10:05:53.553Z,1024.8
2017-03-10T10:06:56.524Z,1024.8
2017-03-10T10:07:58.977Z,1024.8
2017-03-10T10:09:01.434Z,1024.8
2017-03-10T10:10:04.421Z,1024.9
2017-03-10T10:11:06.907Z,1024.8
2017-03-10T10:12:09.384Z,1024.9
2017-03-10T10:13:11.861Z,1024.8
2017-03-10T10:14:14.826Z,1024.8
2017-03-10T10:15:17.304Z,1024.8
2017-03-10T10:16:19.771Z,1024.8
2017-03-10T10:17:22.261Z,1024.8
2017-03-10T10:18:25.246Z,1024.8
2017-03-10T10:19:27.700Z,1024.9
2017-03-10T10:20:29.988Z,1024.8
2017-03-10T10:21:32.957Z,1024.9
2017-03-10T10:22:35.412Z,1024.9
2017-03-10T10:23:38.210Z,1024.9
2017-03-10T10:24:40.670Z,1024.9
2017-03-10T10:25:43.150Z,1024.8
2017-03-10T10:26:45.604Z,1024.9
2017-03-10T10:27:48.416Z,1024.9
2017-03-10T10:28:50.895Z,1024.9
2017-03-10T10:29:53.348Z,1024.9
2017-03-10T10:30:56.307Z,1024.9
2017-03-10T10:31:58.796Z,1024.9
2017-03-10T10:33:01.261Z,1024.9
2017-03-10T10:34:04.231Z,1024.9
2017-03-10T10:34:34.511Z,1024.9
2017-03-10T10:35:06.773Z,1024.9
2017-03-10T10:36:09.251Z,1024.9
2017-03-10T10:37:11.548Z,1024.9
2017-03-10T10:38:14.516Z,1024.9
2017-03-10T10:38:45.103Z,1024.9
2017-03-10T10:39:17.193Z,1024.9
2017-03-10T10:40:19.683Z,1024.9
2017-03-10T10:41:21.971Z,1024.9
2017-03-10T10:42:24.924Z,1025
2017-03-10T10:43:27.603Z,1024.9
2017-03-10T10:44:30.064Z,1024.9
2017-03-10T10:45:32.531Z,1024.9
2017-03-10T10:46:35.013Z,1024.9
2017-03-10T10:47:37.837Z,1024.9
2017-03-10T10:48:40.303Z,1024.9
2017-03-10T10:49:43.268Z,1024.9
2017-03-10T10:50:45.734Z,1024.8
2017-03-10T10:51:48.183Z,1024.8
2017-03-10T10:52:50.657Z,1024.8
2017-03-10T10:53:53.617Z,1024.9
2017-03-10T10:54:56.126Z,1024.9
2017-03-10T10:55:58.594Z,1024.9
2017-03-10T10:56:28.843Z,1024.9
2017-03-10T10:57:01.440Z,1025
2017-03-10T10:59:06.302Z,1024.9
2017-03-10T11:00:09.280Z,1024.9
2017-03-10T11:02:14.139Z,1024.9
2017-03-10T11:03:17.096Z,1024.9
2017-03-10T11:04:19.589Z,1025
2017-03-10T11:05:22.052Z,1024.9
2017-03-10T11:06:24.515Z,1024.9
2017-03-10T11:07:27.329Z,1024.9
2017-03-10T11:08:29.780Z,1025
2017-03-10T11:09:32.740Z,1024.9
2017-03-10T11:10:35.197Z,1024.9
2017-03-10T11:11:37.660Z,1024.9
2017-03-10T11:12:40.617Z,1024.9
2017-03-10T11:13:43.095Z,1024.9
2017-03-10T11:14:45.564Z,1024.9
2017-03-10T11:15:48.022Z,1025
2017-03-10T11:16:50.979Z,1024.9
2017-03-10T11:17:53.433Z,1024.9
2017-03-10T11:18:55.899Z,1024.8
2017-03-10T11:19:58.856Z,1024.9
2017-03-10T11:21:01.318Z,1024.9
2017-03-10T11:22:03.787Z,1024.8
2017-03-10T11:23:06.740Z,1024.9
2017-03-10T11:24:09.211Z,1024.9
2017-03-10T11:26:14.578Z,1024.9
2017-03-10T11:27:17.044Z,1024.9
2017-03-10T11:28:19.499Z,1024.9
2017-03-10T11:29:21.966Z,1024.9
2017-03-10T11:30:24.806Z,1024.8
2017-03-10T11:31:27.285Z,1024.9
2017-03-10T11:32:30.242Z,1024.8
2017-03-10T11:33:32.712Z,1024.9
2017-03-10T11:34:35.187Z,1024.9
2017-03-10T11:35:37.661Z,1024.8
2017-03-10T11:36:40.612Z,1024.8
2017-03-10T11:37:43.062Z,1024.7
2017-03-10T11:38:45.525Z,1024.8
2017-03-10T11:39:48.501Z,1024.8
2017-03-10T11:40:50.899Z,1024.8
2017-03-10T11:41:53.361Z,1024.8
2017-03-10T11:42:56.330Z,1024.8
2017-03-10T11:43:58.800Z,1024.8
2017-03-10T11:45:01.260Z,1024.8
2017-03-10T11:46:04.062Z,1024.8
2017-03-10T11:47:06.511Z,1024.7
2017-03-10T11:48:09.481Z,1024.8
2017-03-10T11:49:11.765Z,1024.8
2017-03-10T11:50:14.722Z,1024.8
2017-03-10T11:52:19.919Z,1024.8
2017-03-10T11:53:22.416Z,1024.8
2017-03-10T11:54:24.868Z,1024.8
2017-03-10T11:55:27.362Z,1024.8
2017-03-10T11:56:30.354Z,1024.9
2017-03-10T11:57:32.668Z,1024.8
2017-03-10T11:58:35.626Z,1024.8
2017-03-10T11:59:38.103Z,1024.9
2017-03-10T12:00:40.589Z,1024.8
2017-03-10T12:01:43.550Z,1024.8
2017-03-10T12:02:46.011Z,1024.8
2017-03-10T12:03:48.812Z,1024.9
2017-03-10T12:04:51.278Z,1024.9
2017-03-10T12:05:53.731Z,1024.9
2017-03-10T12:06:56.213Z,1024.8
2017-03-10T12:07:58.856Z,1024.7
2017-03-10T12:09:01.866Z,1024.7
2017-03-10T12:10:04.356Z,1024.8
2017-03-10T12:11:06.687Z,1024.8
2017-03-10T12:12:09.655Z,1024.8
2017-03-10T12:13:12.140Z,1024.9
2017-03-10T12:14:14.937Z,1024.8
2017-03-10T12:15:17.398Z,1024.8
2017-03-10T12:16:19.868Z,1024.8
2017-03-10T12:17:22.850Z,1024.8
2017-03-10T12:18:25.303Z,1024.9
2017-03-10T12:19:27.788Z,1024.9
2017-03-10T12:20:30.645Z,1024.9
2017-03-10T12:21:33.124Z,1024.9
2017-03-10T12:22:35.577Z,1024.9
2017-03-10T12:23:38.373Z,1024.9
2017-03-10T12:24:40.850Z,1024.9
2017-03-10T12:25:43.332Z,1024.8
2017-03-10T12:26:45.973Z,1024.8
2017-03-10T12:27:48.780Z,1024.8
2017-03-10T12:28:51.233Z,1024.8
2017-03-10T12:29:54.192Z,1024.8
2017-03-10T12:30:56.641Z,1024.9
2017-03-10T12:31:59.099Z,1024.8
2017-03-10T12:33:02.059Z,1024.9
2017-03-10T12:34:04.520Z,1024.9
2017-03-10T12:35:07.316Z,1024.9
2017-03-10T12:36:09.783Z,1024.9
2017-03-10T12:37:12.265Z,1025
2017-03-10T12:38:15.064Z,1025
2017-03-10T12:39:17.349Z,1025
2017-03-10T12:40:20.320Z,1025
2017-03-10T12:41:22.785Z,1024.9
2017-03-10T12:42:25.250Z,1025
2017-03-10T12:43:28.212Z,1024.9
2017-03-10T12:44:30.504Z,1024.9
2017-03-10T12:45:33.462Z,1024.9
2017-03-10T12:46:35.952Z,1024.9
2017-03-10T12:47:38.754Z,1024.9
2017-03-10T12:48:41.213Z,1025
2017-03-10T12:50:46.585Z,1025
2017-03-10T12:51:48.877Z,1025
2017-03-10T12:52:51.855Z,1024.9
2017-03-10T12:53:54.332Z,1024.9
2017-03-10T12:54:56.787Z,1024.9
2017-03-10T12:55:59.743Z,1025
2017-03-10T12:57:02.208Z,1025
2017-03-10T12:58:04.998Z,1024.9
2017-03-10T12:59:07.483Z,1025
2017-03-10T13:00:09.941Z,1024.9
2017-03-10T13:01:12.906Z,1024.9
2017-03-10T13:02:15.360Z,1025
2017-03-10T13:03:17.853Z,1025.1
2017-03-10T13:04:20.302Z,1025
2017-03-10T13:05:23.272Z,1025.1
2017-03-10T13:06:25.734Z,1025
2017-03-10T13:07:28.232Z,1025
2017-03-10T13:08:31.020Z,1025
2017-03-10T13:09:33.474Z,1025
2017-03-10T13:10:36.479Z,1025
2017-03-10T13:11:38.790Z,1025
2017-03-10T13:12:41.251Z,1024.8
2017-03-10T13:13:44.228Z,1024.9
2017-03-10T13:14:46.681Z,1024.9
2017-03-10T13:15:49.136Z,1025
2017-03-10T13:16:52.106Z,1024.9
2017-03-10T13:18:56.972Z,1025
2017-03-10T13:24:10.572Z,1024.9
2017-03-10T13:25:13.022Z,1025
2017-03-10T13:27:18.388Z,1024.9
2017-03-10T13:28:20.843Z,1024.9
2017-03-10T13:30:26.209Z,1024.9
2017-03-10T13:31:28.706Z,1024.9
2017-03-10T13:33:34.106Z,1025
2017-03-10T13:34:36.571Z,1024.9
2017-03-10T13:36:41.778Z,1024.8
2017-03-10T13:37:44.734Z,1024.9
2017-03-10T13:38:47.196Z,1024.9
2017-03-10T13:39:49.661Z,1024.9
2017-03-10T13:42:57.444Z,1025
2017-03-10T14:03:49.987Z,1024.9
2017-03-10T14:04:52.951Z,1025
2017-03-10T14:05:55.435Z,1024.9
2017-03-10T14:06:57.891Z,1024.9
2017-03-10T14:08:00.856Z,1024.9
2017-03-10T14:09:03.342Z,1024.8
2017-03-10T14:10:05.803Z,1024.8
2017-03-10T14:11:08.607Z,1024.9
2017-03-10T14:12:11.069Z,1024.9
2017-03-10T14:13:14.026Z,1024.8
2017-03-10T14:14:16.532Z,1024.8
2017-03-10T14:15:18.986Z,1024.8
2017-03-10T14:16:21.942Z,1024.9
2017-03-10T14:17:24.395Z,1024.8
2017-03-10T14:18:27.178Z,1024.8
2017-03-10T14:19:29.671Z,1024.8
2017-03-10T14:20:32.137Z,1024.8
2017-03-10T14:21:35.114Z,1024.8
2017-03-10T14:22:37.462Z,1024.8
2017-03-10T14:23:39.920Z,1024.7
2017-03-10T14:24:42.927Z,1024.8
2017-03-10T14:25:45.386Z,1024.8
2017-03-10T14:26:47.850Z,1024.8
2017-03-10T14:27:50.823Z,1024.9
2017-03-10T14:28:53.276Z,1024.8
2017-03-10T14:29:55.749Z,1024.8
2017-03-10T14:30:58.719Z,1024.8
2017-03-10T14:32:01.182Z,1024.8
2017-03-10T14:33:03.645Z,1024.9
2017-03-10T14:34:06.645Z,1024.9
2017-03-10T14:35:09.143Z,1024.9
2017-03-10T14:36:11.934Z,1024.9
2017-03-10T14:37:14.395Z,1024.9
2017-03-10T14:38:17.052Z,1025
2017-03-10T14:39:19.527Z,1024.9
2017-03-10T14:40:21.984Z,1025
2017-03-10T14:42:27.368Z,1025
2017-03-10T14:43:29.836Z,1024.9
2017-03-10T14:44:32.805Z,1024.9
2017-03-10T14:45:35.286Z,1024.9
2017-03-10T14:46:37.756Z,1025
2017-03-10T14:47:08.016Z,1025
2017-03-10T14:47:40.782Z,1025
2017-03-10T14:48:43.094Z,1025
2017-03-10T14:49:45.894Z,1024.9
2017-03-10T14:50:48.353Z,1025
2017-03-10T14:51:51.320Z,1025
2017-03-10T14:52:53.770Z,1025
2017-03-10T14:53:56.267Z,1025
2017-03-10T14:54:59.079Z,1025
2017-03-10T14:56:01.534Z,1025
2017-03-10T14:57:04.008Z,1025
2017-03-10T14:58:06.964Z,1025
2017-03-10T14:59:09.427Z,1024.9
2017-03-10T15:00:11.904Z,1024.9
2017-03-10T15:01:14.865Z,1025
2017-03-10T15:02:17.167Z,1025
2017-03-10T15:04:22.526Z,1024.9
2017-03-10T15:05:25.484Z,1025
2017-03-10T15:07:30.706Z,1025.1
2017-03-10T15:09:35.572Z,1025.1
2017-03-10T15:10:38.525Z,1025
2017-03-10T15:11:40.796Z,1025
2017-03-10T15:12:43.777Z,1025
2017-03-10T15:13:46.248Z,1025.1
2017-03-10T15:14:48.707Z,1025.1
2017-03-10T15:15:51.668Z,1025.2
2017-03-10T15:16:54.117Z,1025.2
2017-03-10T15:17:56.612Z,1025.1
2017-03-10T15:18:59.577Z,1025.1
2017-03-10T15:20:02.030Z,1025
2017-03-10T15:21:04.839Z,1025.1
2017-03-10T15:22:07.313Z,1025.2
2017-03-10T15:23:10.118Z,1025.1
2017-03-10T15:24:12.575Z,1025.1
2017-03-10T15:25:15.391Z,1025.1
2017-03-10T15:26:17.692Z,1025.2
2017-03-10T15:27:20.662Z,1025.2
2017-03-10T15:28:23.152Z,1025.3
2017-03-10T15:29:25.614Z,1025.3
2017-03-10T15:30:28.576Z,1025.2
2017-03-10T15:32:33.467Z,1025.1
2017-03-10T15:34:38.844Z,1025.2
2017-03-10T15:37:46.612Z,1025.2
2017-03-10T15:40:54.897Z,1025.2
2017-03-10T16:09:05.448Z,1025.5
2017-03-10T16:11:10.816Z,1025.6
2017-03-10T16:12:13.286Z,1025.6
2017-03-10T16:18:29.284Z,1025.6
2017-03-10T16:20:34.159Z,1025.5
2017-03-10T16:21:37.121Z,1025.6
2017-03-10T16:22:39.575Z,1025.6
2017-03-10T16:23:42.367Z,1025.6
2017-03-10T16:24:44.667Z,1025.6
2017-03-10T16:25:47.461Z,1025.6
2017-03-10T16:26:49.937Z,1025.6
2017-03-10T16:27:52.743Z,1025.6
2017-03-10T16:28:55.242Z,1025.7
2017-03-10T16:29:58.199Z,1025.6
2017-03-10T16:31:00.656Z,1025.7
2017-03-10T16:32:03.191Z,1025.7
2017-03-10T16:33:05.677Z,1025.7
2017-03-10T16:34:08.633Z,1025.7
2017-03-10T16:35:11.092Z,1025.7
2017-03-10T16:36:13.555Z,1025.7
2017-03-10T16:37:16.517Z,1025.6
2017-03-10T16:38:18.975Z,1025.7
2017-03-10T16:39:21.443Z,1025.6
2017-03-10T16:40:24.411Z,1025.7
2017-03-10T16:41:26.864Z,1025.7
2017-03-10T16:42:29.315Z,1025.6
2017-03-10T16:43:32.292Z,1025.6
2017-03-10T16:44:34.741Z,1025.6
2017-03-10T16:45:37.044Z,1025.6
2017-03-10T16:46:40.005Z,1025.7
2017-03-10T16:47:42.475Z,1025.6
2017-03-10T16:48:44.930Z,1025.6
2017-03-10T16:49:47.890Z,1025.7
2017-03-10T16:50:50.358Z,1025.7
2017-03-10T16:51:52.821Z,1025.6
2017-03-10T16:52:55.785Z,1025.7
2017-03-10T16:55:00.649Z,1025.7
2017-03-10T16:56:03.457Z,1025.7
2017-03-10T16:57:05.931Z,1025.7
2017-03-10T16:58:08.897Z,1025.7
2017-03-10T16:59:11.355Z,1025.7
2017-03-10T17:00:14.151Z,1025.7